GLORR EGCV-EGGD

Flight info

Callsign GLORR
Flight time N/A
Altitude 2000
Route DIRECT
Aircraft PA28/L-V/N

Departure

Time 2026-05-05 13:22
Airport Sleap Airfield (EGCV)

Arrival

Time N/A
Airport Bristol Airport (EGGD)
Time Latitude Longitude Altitude Speed Heading
2026-05-05 13:22 52.56438 -2.43120 1933 ft 119 kts 139°
2026-05-05 13:22 52.55823 -2.42207 1934 ft 120 kts 138°
2026-05-05 13:22 52.55210 -2.41290 1933 ft 119 kts 138°
2026-05-05 13:22 52.54587 -2.40396 1946 ft 119 kts 144°
2026-05-05 13:23 52.53866 -2.39713 1949 ft 121 kts 156°
2026-05-05 13:23 52.53081 -2.39309 1933 ft 116 kts 165°
2026-05-05 13:23 52.52333 -2.38839 1940 ft 116 kts 154°
2026-05-05 13:23 52.51622 -2.38234 1941 ft 114 kts 161°
2026-05-05 13:24 52.50883 -2.37716 1933 ft 116 kts 162°
2026-05-05 13:24 52.50134 -2.37301 1898 ft 116 kts 164°
2026-05-05 13:24 52.49374 -2.36929 1947 ft 113 kts 162°
2026-05-05 13:24 52.48618 -2.36523 1925 ft 115 kts 158°
2026-05-05 13:25 52.47930 -2.35881 1944 ft 115 kts 144°
2026-05-05 13:25 52.47273 -2.35146 1976 ft 115 kts 156°
2026-05-05 13:25 52.46534 -2.34621 2025 ft 113 kts 159°
2026-05-05 13:25 52.45792 -2.34116 2019 ft 118 kts 156°
2026-05-05 13:26 52.45042 -2.33573 2041 ft 117 kts 158°
2026-05-05 13:26 52.44279 -2.33098 2072 ft 117 kts 162°
2026-05-05 13:26 52.43500 -2.32724 2078 ft 117 kts 167°
2026-05-05 13:26 52.42704 -2.32423 2093 ft 117 kts 168°
2026-05-05 13:27 52.41929 -2.32053 2106 ft 117 kts 155°
2026-05-05 13:27 52.41286 -2.31239 2119 ft 117 kts 134°
2026-05-05 13:27 52.40832 -2.30117 2097 ft 120 kts 112°
2026-05-05 13:27 52.40683 -2.28776 2144 ft 120 kts 91°
2026-05-05 13:28 52.40704 -2.27413 2137 ft 120 kts 88°
2026-05-05 13:28 52.40740 -2.26041 2143 ft 121 kts 87°
2026-05-05 13:28 52.40780 -2.24672 2120 ft 121 kts 87°
2026-05-05 13:28 52.40727 -2.23321 2184 ft 116 kts 105°
2026-05-05 13:29 52.40269 -2.22238 2134 ft 122 kts 142°
2026-05-05 13:29 52.39622 -2.21376 2173 ft 117 kts 143°
2026-05-05 13:29 52.39086 -2.20357 2198 ft 118 kts 121°
2026-05-05 13:29 52.38734 -2.19146 2201 ft 119 kts 114°
2026-05-05 13:30 52.38410 -2.17901 2219 ft 118 kts 110°
2026-05-05 13:30 52.38128 -2.16654 2287 ft 116 kts 111°
2026-05-05 13:30 52.37837 -2.15411 2309 ft 118 kts 110°
2026-05-05 13:30 52.37577 -2.14136 2364 ft 117 kts 106°
2026-05-05 13:31 52.37437 -2.12822 2350 ft 120 kts 94°
2026-05-05 13:31 52.37423 -2.11474 2452 ft 115 kts 88°
2026-05-05 13:31 52.37449 -2.10178 2516 ft 115 kts 95°
2026-05-05 13:31 52.37302 -2.08873 2505 ft 117 kts 104°
2026-05-05 13:32 52.37014 -2.07636 2505 ft 117 kts 115°
2026-05-05 13:32 52.36642 -2.06463 2557 ft 115 kts 118°
2026-05-05 13:32 52.36294 -2.05263 2581 ft 117 kts 115°
2026-05-05 13:32 52.35888 -2.04127 2609 ft 119 kts 125°
2026-05-05 13:33 52.35356 -2.03016 2526 ft 126 kts 136°
2026-05-05 13:33 52.34709 -2.02053 2476 ft 127 kts 140°
2026-05-05 13:33 52.34027 -2.01153 2444 ft 125 kts 144°
2026-05-05 13:33 52.33327 -2.00321 2403 ft 123 kts 140°
2026-05-05 13:34 52.32687 -1.99420 2402 ft 121 kts 140°
2026-05-05 13:34 52.32032 -1.98538 2408 ft 121 kts 142°
2026-05-05 13:34 52.31358 -1.97749 2373 ft 122 kts 147°
2026-05-05 13:34 52.30647 -1.97001 2348 ft 121 kts 148°
2026-05-05 13:35 52.29938 -1.96254 2326 ft 121 kts 148°
2026-05-05 13:35 52.29233 -1.95510 2316 ft 120 kts 148°
2026-05-05 13:35 52.28526 -1.94767 2294 ft 121 kts 149°
2026-05-05 13:35 52.27815 -1.94054 2337 ft 118 kts 150°
2026-05-05 13:36 52.27109 -1.93399 2321 ft 119 kts 152°
2026-05-05 13:36 52.26367 -1.92773 2305 ft 120 kts 154°
2026-05-05 13:36 52.25634 -1.92105 2251 ft 122 kts 149°
2026-05-05 13:36 52.24921 -1.91368 2255 ft 121 kts 147°
2026-05-05 13:37 52.24210 -1.90609 2195 ft 124 kts 148°
2026-05-05 13:37 52.23473 -1.89855 2135 ft 125 kts 150°
2026-05-05 13:37 52.22728 -1.89087 2077 ft 129 kts 143°
2026-05-05 13:37 52.22132 -1.88049 2141 ft 121 kts 123°
2026-05-05 13:38 52.21856 -1.86764 2096 ft 123 kts 98°
2026-05-05 13:38 52.21777 -1.85375 2075 ft 122 kts 96°
2026-05-05 13:38 52.21755 -1.84008 2119 ft 118 kts 87°
2026-05-05 13:38 52.21807 -1.82700 2239 ft 115 kts 86°
2026-05-05 13:39 52.21898 -1.81386 2212 ft 120 kts 81°
2026-05-05 13:39 52.22007 -1.79978 2146 ft 127 kts 84°
2026-05-05 13:39 52.22050 -1.78553 2134 ft 122 kts 92°
2026-05-05 13:39 52.21886 -1.77199 2157 ft 117 kts 112°
2026-05-05 13:40 52.21530 -1.76016 2165 ft 120 kts 120°
2026-05-05 13:40 52.21048 -1.74895 2150 ft 121 kts 129°
2026-05-05 13:40 52.20581 -1.73740 2122 ft 121 kts 117°
2026-05-05 13:40 52.20272 -1.72468 2114 ft 121 kts 108°
2026-05-05 13:41 52.20034 -1.71141 2074 ft 123 kts 106°
2026-05-05 13:41 52.19779 -1.69836 2109 ft 119 kts 107°
2026-05-05 13:41 52.19571 -1.68540 2119 ft 118 kts 104°
2026-05-05 13:41 52.19387 -1.67230 2100 ft 119 kts 101°
2026-05-05 13:42 52.19232 -1.65905 2093 ft 119 kts 101°
2026-05-05 13:42 52.18940 -1.64666 2145 ft 118 kts 115°
2026-05-05 13:42 52.18587 -1.63452 2181 ft 117 kts 116°
2026-05-05 13:42 52.18273 -1.62229 2215 ft 115 kts 110°
2026-05-05 13:43 52.18094 -1.61018 2349 ft 107 kts 92°
2026-05-05 13:43 52.18082 -1.60225 2413 ft 105 kts 92°
2026-05-05 13:43 52.18140 -1.59062 2519 ft 97 kts 70°
2026-05-05 13:43 52.18658 -1.58397 2379 ft 105 kts
2026-05-05 13:44 52.19336 -1.58920 2069 ft 117 kts 310°
2026-05-05 13:44 52.19632 -1.60095 1999 ft 111 kts 279°
2026-05-05 13:44 52.19736 -1.61355 2153 ft 110 kts 275°
2026-05-05 13:44 52.19665 -1.62558 2132 ft 109 kts 246°
2026-05-05 13:45 52.19066 -1.63216 2041 ft 107 kts 197°
2026-05-05 13:45 52.18328 -1.63423 1791 ft 107 kts 183°
2026-05-05 13:45 52.17641 -1.63166 1623 ft 98 kts 150°
2026-05-05 13:45 52.17199 -1.62322 1344 ft 99 kts 108°
2026-05-05 13:46 52.17202 -1.61217 1094 ft 99 kts 79°
2026-05-05 13:46 52.17475 -1.60244 945 ft 95 kts 44°
2026-05-05 13:46 52.18091 -1.59764 940 ft 101 kts 13°
2026-05-05 13:46 52.18789 -1.59532 977 ft 102 kts
2026-05-05 13:47 52.19521 -1.59393 966 ft 106 kts
2026-05-05 13:47 52.20261 -1.59367 964 ft 108 kts 358°
2026-05-05 13:47 52.21003 -1.59490 1017 ft 103 kts 340°
2026-05-05 13:47 52.21482 -1.60135 973 ft 82 kts 298°
2026-05-05 13:48 52.21552 -1.61008 791 ft 78 kts 262°
2026-05-05 13:48 52.21297 -1.61696 646 ft 71 kts 205°
2026-05-05 13:48 52.20789 -1.61668 493 ft 75 kts 169°
2026-05-05 13:48 52.20278 -1.61530 337 ft 73 kts 175°
2026-05-05 13:49 52.19776 -1.61498 200 ft 70 kts 176°
2026-05-05 13:49 52.19345 -1.61452 153 ft 47 kts 175°
2026-05-05 13:49 52.19145 -1.61430 155 ft 21 kts 169°
2026-05-05 13:49 52.18988 -1.61415 157 ft 10 kts 174°
2026-05-05 13:50 52.18921 -1.61404 158 ft 28 kts 178°
2026-05-05 13:50 52.18699 -1.61384 158 ft 26 kts 182°
2026-05-05 13:50 52.18650 -1.61618 158 ft 25 kts 273°
2026-05-05 13:50 52.18732 -1.61838 158 ft 21 kts 321°
2026-05-05 13:51 52.18859 -1.61876 158 ft 18 kts
2026-05-05 13:51 52.19000 -1.61830 157 ft 25 kts 13°
2026-05-05 13:51 52.19127 -1.61803 156 ft 11 kts 355°
2026-05-05 13:51 52.19159 -1.61786 156 ft 0 kts 54°
2026-05-05 13:52 52.19163 -1.61770 156 ft 3 kts 85°
2026-05-05 13:52 52.19165 -1.61759 156 ft 0 kts 70°
2026-05-05 14:40 52.19169 -1.61761 156 ft 1 kts 293°
2026-05-05 14:40 52.19161 -1.61790 156 ft 5 kts 200°
2026-05-05 14:40 52.19074 -1.61801 157 ft 19 kts 187°
2026-05-05 14:40 52.18866 -1.61876 158 ft 32 kts 188°
2026-05-05 14:41 52.18719 -1.61809 158 ft 17 kts 125°
2026-05-05 14:41 52.18751 -1.61711 160 ft 2 kts 44°
2026-05-05 14:41 52.18831 -1.61582 160 ft 47 kts 45°
2026-05-05 14:41 52.19192 -1.60993 254 ft 89 kts 45°
2026-05-05 14:42 52.19653 -1.60252 596 ft 92 kts 43°
2026-05-05 14:42 52.20104 -1.59583 1010 ft 84 kts 27°
2026-05-05 14:42 52.20556 -1.59892 1343 ft 84 kts 287°
2026-05-05 14:42 52.20548 -1.60881 1672 ft 90 kts 262°
2026-05-05 14:43 52.20324 -1.61787 1979 ft 91 kts 229°
2026-05-05 14:43 52.19814 -1.62426 2000 ft 91 kts 201°
2026-05-05 14:43 52.19225 -1.62299 2077 ft 89 kts 146°
2026-05-05 14:43 52.18950 -1.61390 2076 ft 91 kts 94°
2026-05-05 14:44 52.19161 -1.60452 2135 ft 89 kts 42°
2026-05-05 14:44 52.19711 -1.59907 2083 ft 95 kts 28°
2026-05-05 14:44 52.20272 -1.59318 2056 ft 96 kts 33°
2026-05-05 14:44 52.20823 -1.58700 2086 ft 97 kts 34°
2026-05-05 14:45 52.21357 -1.58034 2082 ft 96 kts 38°
2026-05-05 14:45 52.21859 -1.57295 2069 ft 98 kts 37°
2026-05-05 14:45 52.22407 -1.56640 2099 ft 97 kts 33°
2026-05-05 14:45 52.22966 -1.55980 2047 ft 103 kts 36°
2026-05-05 14:46 52.23550 -1.55304 2011 ft 102 kts 34°
2026-05-05 14:46 52.24112 -1.54647 2013 ft 101 kts 34°
2026-05-05 14:46 52.24680 -1.53969 1989 ft 101 kts 36°
2026-05-05 14:46 52.25256 -1.53322 2010 ft 98 kts 32°
2026-05-05 14:47 52.25746 -1.52573 2045 ft 100 kts 50°
2026-05-05 14:47 52.26166 -1.51663 2005 ft 100 kts 53°
2026-05-05 14:47 52.26628 -1.50823 1997 ft 99 kts 41°
2026-05-05 14:47 52.27139 -1.50073 2017 ft 98 kts 42°
2026-05-05 14:48 52.27644 -1.49303 1973 ft 100 kts 41°
2026-05-05 14:48 52.28166 -1.48557 1933 ft 101 kts 39°
2026-05-05 14:48 52.28701 -1.47829 1930 ft 99 kts 41°
2026-05-05 14:48 52.29190 -1.47057 1932 ft 96 kts 38°
2026-05-05 14:49 52.29759 -1.46525 1956 ft 96 kts 21°
2026-05-05 14:49 52.30397 -1.46115 1956 ft 97 kts 21°
2026-05-05 14:49 52.31021 -1.45683 1956 ft 97 kts 22°
2026-05-05 14:49 52.31624 -1.45195 1951 ft 97 kts 27°
2026-05-05 14:50 52.32209 -1.44610 1922 ft 100 kts 31°
2026-05-05 14:50 52.32795 -1.43987 1918 ft 100 kts 32°
2026-05-05 14:50 52.33352 -1.43303 1919 ft 99 kts 39°
2026-05-05 14:50 52.33721 -1.42463 1987 ft 91 kts 68°
2026-05-05 14:51 52.33826 -1.41428 1990 ft 92 kts 90°
2026-05-05 14:51 52.33726 -1.40393 2009 ft 94 kts 102°
2026-05-05 14:51 52.33579 -1.39354 2056 ft 93 kts 104°
2026-05-05 14:51 52.33396 -1.38362 2080 ft 92 kts 110°
2026-05-05 14:52 52.33153 -1.37382 2132 ft 91 kts 115°
2026-05-05 14:52 52.32848 -1.36463 2139 ft 95 kts 119°
2026-05-05 14:52 52.32582 -1.35470 2154 ft 95 kts 109°
2026-05-05 14:52 52.32449 -1.34407 2134 ft 97 kts 94°
2026-05-05 14:53 52.32405 -1.33328 2129 ft 96 kts 82°
2026-05-05 14:53 52.32690 -1.32374 2143 ft 93 kts 44°
2026-05-05 14:53 52.33261 -1.31895 2142 ft 94 kts 15°
2026-05-05 14:53 52.33891 -1.31579 2143 ft 95 kts 16°
2026-05-05 14:54 52.34517 -1.31420 2223 ft 87 kts
2026-05-05 14:54 52.35120 -1.31328 2268 ft 88 kts
2026-05-05 14:54 52.35729 -1.31095 2245 ft 92 kts 12°
2026-05-05 14:54 52.36343 -1.30830 2248 ft 91 kts 15°
2026-05-05 14:55 52.36957 -1.30507 2224 ft 94 kts 18°
2026-05-05 14:55 52.37598 -1.30181 2237 ft 94 kts 14°
2026-05-05 14:55 52.38225 -1.29896 2222 ft 95 kts 16°
2026-05-05 14:55 52.38852 -1.29529 2247 ft 94 kts 21°
2026-05-05 14:56 52.39460 -1.29116 2232 ft 95 kts 20°
2026-05-05 14:56 52.40074 -1.28715 2265 ft 95 kts 21°
2026-05-05 14:56 52.40672 -1.28301 2310 ft 95 kts 22°
2026-05-05 14:56 52.41277 -1.27822 2340 ft 95 kts 25°
2026-05-05 14:57 52.41918 -1.27373 2193 ft 107 kts 15°
2026-05-05 14:57 52.42660 -1.27042 2111 ft 106 kts 13°
2026-05-05 14:57 52.43390 -1.26742 2015 ft 108 kts 13°
2026-05-05 14:57 52.44099 -1.26454 2026 ft 103 kts 14°
2026-05-05 14:58 52.44782 -1.26145 2029 ft 101 kts 14°
2026-05-05 14:58 52.45463 -1.25828 2030 ft 100 kts 14°
2026-05-05 14:58 52.46144 -1.25510 1978 ft 103 kts 15°
2026-05-05 14:58 52.46827 -1.25154 1939 ft 104 kts 18°
2026-05-05 14:59 52.47515 -1.24772 1906 ft 105 kts 16°
2026-05-05 14:59 52.48210 -1.24417 1880 ft 106 kts 16°
2026-05-05 14:59 52.48907 -1.24074 1843 ft 106 kts 16°
2026-05-05 14:59 52.49634 -1.23773 1863 ft 99 kts 15°
2026-05-05 15:00 52.50260 -1.23437 1902 ft 98 kts 18°
2026-05-05 15:00 52.50696 -1.23186 1878 ft 99 kts 19°
2026-05-05 15:00 52.51537 -1.22597 1834 ft 101 kts 23°
2026-05-05 15:00 52.52176 -1.22148 1813 ft 100 kts 21°
2026-05-05 15:01 52.52743 -1.21771 1773 ft 101 kts 20°
2026-05-05 15:05 52.53548 -1.21257 1800 ft 100 kts 19°
2026-05-05 15:05 52.54216 -1.20870 1771 ft 104 kts 19°
2026-05-05 15:05 52.54916 -1.20554 1699 ft 106 kts
2026-05-05 15:06 52.55632 -1.20342 1688 ft 105 kts 11°
2026-05-05 15:06 52.56320 -1.20052 1742 ft 100 kts 15°
2026-05-05 15:06 52.56980 -1.19704 1737 ft 99 kts 19°
2026-05-05 15:06 52.57666 -1.19293 1590 ft 108 kts 20°
2026-05-05 15:07 52.58354 -1.18844 1575 ft 104 kts 22°
2026-05-05 15:07 52.58892 -1.18193 1676 ft 92 kts 51°
2026-05-05 15:07 52.59141 -1.17244 1693 ft 94 kts 78°
2026-05-05 15:07 52.59339 -1.16172 1632 ft 99 kts 68°
2026-05-05 15:08 52.59552 -1.15119 1668 ft 97 kts 76°
2026-05-05 15:08 52.59688 -1.14018 1660 ft 98 kts 77°
2026-05-05 15:08 52.59844 -1.12930 1666 ft 97 kts 76°
2026-05-05 15:08 52.59994 -1.11846 1680 ft 97 kts 77°
2026-05-05 15:09 52.60119 -1.10759 1695 ft 97 kts 80°
2026-05-05 15:09 52.60259 -1.09657 1681 ft 99 kts 79°
2026-05-05 15:09 52.60335 -1.08529 1680 ft 100 kts 84°
2026-05-05 15:09 52.60400 -1.07374 1639 ft 101 kts 85°
2026-05-05 15:10 52.60444 -1.06282 1508 ft 91 kts 88°
2026-05-05 15:10 52.60468 -1.05278 1387 ft 88 kts 86°
2026-05-05 15:10 52.60491 -1.04251 1323 ft 88 kts 87°
2026-05-05 15:10 52.60707 -1.03400 1335 ft 78 kts 33°
2026-05-05 15:11 52.61213 -1.03093 1290 ft 76 kts
2026-05-05 15:11 52.61656 -1.03417 1120 ft 75 kts 304°
2026-05-05 15:11 52.61670 -1.04204 967 ft 72 kts 237°
2026-05-05 15:11 52.61326 -1.04737 875 ft 67 kts 214°
2026-05-05 15:12 52.60872 -1.04981 866 ft 74 kts 188°
2026-05-05 15:12 52.60357 -1.04935 1012 ft 75 kts 156°
2026-05-05 15:12 52.59934 -1.04308 1067 ft 87 kts 135°
2026-05-05 15:12 52.59585 -1.03506 1073 ft 91 kts 118°
2026-05-05 15:13 52.59348 -1.02538 1099 ft 91 kts 101°
2026-05-05 15:13 52.59428 -1.01521 1111 ft 91 kts 60°
2026-05-05 15:13 52.59881 -1.00795 1013 ft 91 kts 32°
2026-05-05 15:13 52.60416 -1.00512 945 ft 70 kts 348°
2026-05-05 15:14 52.60732 -1.01069 758 ft 70 kts 272°
2026-05-05 15:14 52.60700 -1.01848 593 ft 66 kts 270°
2026-05-05 15:14 52.60745 -1.02569 472 ft 59 kts 275°
2026-05-05 15:14 52.60773 -1.03037 461 ft 19 kts 273°
2026-05-05 15:15 52.60783 -1.03222 463 ft 14 kts 279°
2026-05-05 15:15 52.60795 -1.03372 464 ft 15 kts 241°
2026-05-05 15:15 52.60679 -1.03296 462 ft 25 kts 154°
2026-05-05 15:15 52.60531 -1.03172 463 ft 33 kts 146°
2026-05-05 15:16 52.60366 -1.03079 468 ft 18 kts 271°
2026-05-05 15:16 52.60512 -1.03269 466 ft 31 kts 304°
2026-05-05 15:16 52.60537 -1.03370 463 ft 0 kts 358°